Time;durP1;ratioP1;P1;durP2;ratioP2;P2;SDS_P1;SDS_P2;PMS_P1;PMS_P2;Temp;Humidity;BMP_temperature;BMP_pressure;BME280_temperature;BME280_humidity;BME280_pressure;Samples;Min_cycle;Max_cycle;Signal;HPM_P1;HPM_P2
2023/01/13 00:01:12;;;;;;;10.07;7.03;;;;;;;;;;4993445;28;20054;-81
2023/01/13 00:03:40;;;;;;;10.10;6.70;;;;;;;;;;4992286;28;20054;-81
2023/01/13 00:06:09;;;;;;;6.85;5.15;;;;;;;;;;4983517;28;20054;-81
2023/01/13 00:08:36;;;;;;;6.28;4.78;;;;;;;;;;4988164;28;20073;-81
2023/01/13 00:11:04;;;;;;;5.78;4.30;;;;;;;;;;5002842;28;20085;-81
2023/01/13 00:13:34;;;;;;;5.32;3.70;;;;;;;;;;4994571;28;20077;-81
2023/01/13 00:16:16;;;;;;;9.40;5.30;;;;;;;;;;4995584;28;20060;-81
2023/01/13 00:18:44;;;;;;;6.90;5.93;;;;;;;;;;4988327;28;20089;-81
2023/01/13 00:21:13;;;;;;;5.43;4.55;;;;;;;;;;4994915;28;20046;-81
2023/01/13 00:23:41;;;;;;;6.97;4.53;;;;;;;;;;4996446;28;20074;-81
2023/01/13 00:26:10;;;;;;;4.45;4.00;;;;;;;;;;4994162;28;20065;-81
2023/01/13 00:28:37;;;;;;;3.20;2.90;;;;;;;;;;4997767;28;20270;-82
2023/01/13 00:31:06;;;;;;;3.58;3.13;;;;;;;;;;4992803;28;20053;-82
2023/01/13 00:33:33;;;;;;;4.70;2.78;;;;;;;;;;4994432;28;20066;-81
2023/01/13 00:36:01;;;;;;;3.50;2.45;;;;;;;;;;4996074;28;20046;-81
2023/01/13 00:38:30;;;;;;;4.50;2.20;;;;;;;;;;4994712;28;20046;-81
2023/01/13 00:40:58;;;;;;;2.88;1.98;;;;;;;;;;4995104;28;20046;-81
2023/01/13 00:43:26;;;;;;;2.50;2.30;;;;;;;;;;4996459;28;20070;-82
2023/01/13 00:45:54;;;;;;;2.75;2.28;;;;;;;;;;4993668;28;20050;-82
2023/01/13 00:48:22;;;;;;;2.50;2.28;;;;;;;;;;4979542;28;20038;-81
2023/01/13 00:51:00;;;;;;;2.60;2.22;;;;;;;;;;4976851;28;20108;-82
2023/01/13 00:53:28;;;;;;;2.50;2.22;;;;;;;;;;4995453;28;20050;-82
2023/01/13 00:56:02;;;;;;;4.30;2.50;;;;;;;;;;4991862;28;20054;-81
2023/01/13 00:58:30;;;;;;;3.42;2.50;;;;;;;;;;4995661;28;20054;-81
2023/01/13 01:01:02;;;;;;;2.65;2.40;;;;;;;;;;4996666;28;20050;-81
2023/01/13 01:03:29;;;;;;;3.83;1.92;;;;;;;;;;5008787;23;20129;-82
2023/01/13 01:05:57;;;;;;;2.20;2.00;;;;;;;;;;4978345;28;20054;-83
2023/01/13 01:08:25;;;;;;;1.85;1.73;;;;;;;;;;4980114;28;20137;-83
2023/01/13 01:11:00;;;;;;;2.45;2.22;;;;;;;;;;4983516;28;20042;-83
2023/01/13 01:13:27;;;;;;;3.80;2.10;;;;;;;;;;4973863;28;20047;-82
2023/01/13 01:15:55;;;;;;;2.25;2.00;;;;;;;;;;4971027;28;20039;-83
2023/01/13 01:18:23;;;;;;;2.95;2.00;;;;;;;;;;4969669;28;20512;-83
2023/01/13 01:20:50;;;;;;;3.25;1.90;;;;;;;;;;4964244;28;20402;-83
2023/01/13 01:23:17;;;;;;;4.97;4.68;;;;;;;;;;4978183;28;20137;-83
2023/01/13 01:25:45;;;;;;;2.72;1.80;;;;;;;;;;4971865;28;20074;-83
2023/01/13 01:28:12;;;;;;;2.70;1.55;;;;;;;;;;4974291;28;20394;-83
2023/01/13 01:30:40;;;;;;;2.50;1.75;;;;;;;;;;4975165;28;20625;-83
2023/01/13 01:33:07;;;;;;;2.55;1.98;;;;;;;;;;4971221;28;20062;-84
2023/01/13 01:35:38;;;;;;;2.38;2.17;;;;;;;;;;4979170;28;20497;-83
2023/01/13 01:38:05;;;;;;;2.15;2.05;;;;;;;;;;4972501;28;20089;-84
2023/01/13 01:40:33;;;;;;;5.97;2.45;;;;;;;;;;4956262;28;20039;-83
2023/01/13 01:45:46;;;;;;;2.92;1.58;;;;;;;;;;4965927;28;20058;-82
2023/01/13 01:48:13;;;;;;;2.30;2.08;;;;;;;;;;4967547;28;20521;-82
2023/01/13 01:50:41;;;;;;;4.90;2.10;;;;;;;;;;4984264;28;20039;-82
2023/01/13 01:53:11;;;;;;;3.75;2.75;;;;;;;;;;4967357;28;20039;-83
2023/01/13 01:55:39;;;;;;;3.00;1.90;;;;;;;;;;4977029;28;20050;-82
2023/01/13 01:58:12;;;;;;;2.70;2.10;;;;;;;;;;4966029;28;20062;-83
2023/01/13 02:00:39;;;;;;;2.30;1.88;;;;;;;;;;4966312;28;20136;-83
2023/01/13 02:03:08;;;;;;;3.50;1.83;;;;;;;;;;4961849;28;20129;-83
2023/01/13 02:05:35;;;;;;;2.20;2.00;;;;;;;;;;4974138;28;20137;-83
2023/01/13 02:08:03;;;;;;;1.85;1.73;;;;;;;;;;4965887;28;20185;-83
2023/01/13 02:10:31;;;;;;;2.83;1.90;;;;;;;;;;4964066;28;20072;-82
2023/01/13 02:13:00;;;;;;;3.25;2.00;;;;;;;;;;4970091;28;20473;-83
2023/01/13 02:15:40;;;;;;;3.50;1.80;;;;;;;;;;4969216;28;20090;-83
2023/01/13 02:18:31;;;;;;;2.20;1.90;;;;;;;;;;4969564;28;20041;-83
2023/01/13 02:21:18;;;;;;;5.35;1.75;;;;;;;;;;4974624;28;20063;-82
2023/01/13 02:26:55;;;;;;;3.00;2.05;;;;;;;;;;4974460;28;20502;-83
2023/01/13 02:32:34;;;;;;;2.17;1.90;;;;;;;;;;4996278;28;20070;-83
2023/01/13 02:35:24;;;;;;;2.20;1.85;;;;;;;;;;4974482;28;20043;-83
2023/01/13 02:37:53;;;;;;;2.78;2.20;;;;;;;;;;4974636;28;20420;-83
2023/01/13 02:40:20;;;;;;;2.63;1.65;;;;;;;;;;4976609;28;20074;-82
2023/01/13 02:45:39;;;;;;;2.00;1.90;;;;;;;;;;4961510;28;20420;-83
2023/01/13 02:48:08;;;;;;;2.40;2.20;;;;;;;;;;4962674;28;20049;-82
2023/01/13 02:50:38;;;;;;;2.25;2.10;;;;;;;;;;4963687;28;20547;-82
2023/01/13 02:53:24;;;;;;;1.77;1.67;;;;;;;;;;4963925;28;20043;-82
2023/01/13 02:55:53;;;;;;;3.03;1.90;;;;;;;;;;4970198;28;20125;-82
2023/01/13 02:58:23;;;;;;;3.03;2.33;;;;;;;;;;4971173;28;20043;-82
2023/01/13 03:00:51;;;;;;;1.83;1.73;;;;;;;;;;4956356;28;20144;-83
2023/01/13 03:03:18;;;;;;;4.13;2.20;;;;;;;;;;4971149;28;20081;-83
2023/01/13 03:05:47;;;;;;;3.72;2.00;;;;;;;;;;4953619;28;20102;-83
2023/01/13 03:08:20;;;;;;;2.25;1.73;;;;;;;;;;4972974;28;20050;-82
2023/01/13 03:11:07;;;;;;;2.80;1.92;;;;;;;;;;4982339;28;20377;-82
2023/01/13 03:13:34;;;;;;;1.75;1.65;;;;;;;;;;4983767;28;20074;-83
2023/01/13 03:16:08;;;;;;;2.13;1.90;;;;;;;;;;4976679;28;20054;-83
2023/01/13 03:18:41;;;;;;;2.92;2.00;;;;;;;;;;4964456;28;20152;-83
2023/01/13 03:21:13;;;;;;;2.47;1.88;;;;;;;;;;4970005;28;20104;-83
2023/01/13 03:23:47;;;;;;;2.22;2.03;;;;;;;;;;4969112;28;20129;-82
2023/01/13 03:26:16;;;;;;;1.90;1.80;;;;;;;;;;4972163;28;20046;-83
2023/01/13 03:28:46;;;;;;;1.90;1.67;;;;;;;;;;4964623;28;20094;-82
2023/01/13 03:31:15;;;;;;;3.08;1.80;;;;;;;;;;4968984;28;20042;-82
2023/01/13 03:33:50;;;;;;;4.32;1.77;;;;;;;;;;4964181;28;20095;-83
2023/01/13 03:36:21;;;;;;;2.05;1.90;;;;;;;;;;4967270;28;20043;-82
2023/01/13 03:38:54;;;;;;;3.15;1.98;;;;;;;;;;4972166;28;20070;-83
2023/01/13 03:41:24;;;;;;;3.53;1.70;;;;;;;;;;4965907;28;20130;-83
2023/01/13 03:46:43;;;;;;;1.90;1.80;;;;;;;;;;4984332;28;20137;-84
2023/01/13 03:49:13;;;;;;;2.45;1.60;;;;;;;;;;4968136;28;20524;-83
2023/01/13 03:51:42;;;;;;;2.17;1.70;;;;;;;;;;4965504;28;20046;-83
2023/01/13 03:54:11;;;;;;;2.15;1.88;;;;;;;;;;4982958;28;20075;-82
2023/01/13 03:56:44;;;;;;;2.10;1.77;;;;;;;;;;4972415;28;20416;-82
2023/01/13 03:59:16;;;;;;;3.35;1.80;;;;;;;;;;4962709;28;20389;-82
2023/01/13 04:01:59;;;;;;;2.30;1.87;;;;;;;;;;4972873;28;20125;-83
2023/01/13 04:04:30;;;;;;;6.88;2.00;;;;;;;;;;4966145;28;20298;-83
2023/01/13 04:07:03;;;;;;;4.68;1.63;;;;;;;;;;4973473;28;20336;-82
2023/01/13 04:09:45;;;;;;;2.30;1.60;;;;;;;;;;4970508;28;20363;-83
2023/01/13 04:15:21;;;;;;;2.38;1.75;;;;;;;;;;4971016;28;20046;-83
2023/01/13 04:17:49;;;;;;;3.00;1.48;;;;;;;;;;4976019;28;20043;-82
2023/01/13 04:20:16;;;;;;;2.20;1.70;;;;;;;;;;4973915;28;20051;-83
2023/01/13 04:22:44;;;;;;;3.17;1.67;;;;;;;;;;4971256;28;20070;-83
2023/01/13 04:25:11;;;;;;;2.67;2.00;;;;;;;;;;4982724;28;20046;-83
2023/01/13 04:27:38;;;;;;;2.60;2.05;;;;;;;;;;4971624;28;20097;-83
2023/01/13 04:30:06;;;;;;;1.60;1.50;;;;;;;;;;4985101;28;20524;-83
2023/01/13 04:32:33;;;;;;;2.90;1.80;;;;;;;;;;4989043;28;20046;-82
2023/01/13 04:35:01;;;;;;;2.92;1.50;;;;;;;;;;4989497;28;20054;-82
2023/01/13 04:37:28;;;;;;;3.45;1.92;;;;;;;;;;4979234;28;20057;-83
2023/01/13 04:39:57;;;;;;;2.20;1.60;;;;;;;;;;4966027;28;20042;-83
2023/01/13 04:42:24;;;;;;;4.65;1.60;;;;;;;;;;4957046;28;20047;-84
2023/01/13 04:44:52;;;;;;;1.98;1.83;;;;;;;;;;4967557;28;20043;-82
2023/01/13 04:47:19;;;;;;;2.15;1.67;;;;;;;;;;4967074;28;20038;-83
2023/01/13 04:49:46;;;;;;;1.58;1.48;;;;;;;;;;4967729;28;20117;-83
2023/01/13 04:52:14;;;;;;;2.78;1.40;;;;;;;;;;4961294;28;20709;-84
2023/01/13 04:54:41;;;;;;;1.40;1.30;;;;;;;;;;4965038;28;20298;-82
2023/01/13 04:57:08;;;;;;;2.70;1.48;;;;;;;;;;4966355;28;20038;-83
2023/01/13 04:59:36;;;;;;;1.83;1.65;;;;;;;;;;4958440;28;20051;-82
2023/01/13 05:02:03;;;;;;;1.58;1.48;;;;;;;;;;4968875;28;20124;-84
2023/01/13 05:04:31;;;;;;;2.63;1.73;;;;;;;;;;4968937;28;20047;-83
2023/01/13 05:06:58;;;;;;;1.80;1.70;;;;;;;;;;4982403;28;20053;-80
2023/01/13 05:09:25;;;;;;;1.55;1.45;;;;;;;;;;4973458;28;20519;-83
2023/01/13 05:17:28;;;;;;;2.10;1.65;;;;;;;;;;4968440;28;20082;-83
2023/01/13 05:19:55;;;;;;;2.05;1.60;;;;;;;;;;4974577;28;20062;-84
2023/01/13 05:25:23;;;;;;;1.98;1.55;;;;;;;;;;4957912;28;20047;-84
2023/01/13 05:27:53;;;;;;;4.38;2.00;;;;;;;;;;4956236;28;20051;-85
2023/01/13 05:30:25;;;;;;;3.05;1.98;;;;;;;;;;4970835;28;20588;-85
2023/01/13 05:32:52;;;;;;;4.32;2.30;;;;;;;;;;4964013;28;20568;-85
2023/01/13 05:35:20;;;;;;;3.63;1.92;;;;;;;;;;4963083;28;20039;-85
2023/01/13 05:37:47;;;;;;;3.15;2.22;;;;;;;;;;4972088;28;20133;-85
2023/01/13 05:43:20;;;;;;;7.80;4.32;;;;;;;;;;4967122;28;20074;-85
2023/01/13 05:46:03;;;;;;;3.30;2.42;;;;;;;;;;4959223;28;20043;-84
2023/01/13 05:48:34;;;;;;;2.50;2.30;;;;;;;;;;4959055;28;20055;-85
2023/01/13 05:51:02;;;;;;;2.38;2.00;;;;;;;;;;4968355;28;20290;-85
2023/01/13 05:53:30;;;;;;;3.38;1.90;;;;;;;;;;4969127;28;20500;-85
2023/01/13 05:55:59;;;;;;;3.42;2.00;;;;;;;;;;4978541;28;20054;-84
2023/01/13 05:58:27;;;;;;;2.25;1.85;;;;;;;;;;4960062;28;20078;-84
2023/01/13 06:00:59;;;;;;;2.00;1.80;;;;;;;;;;4957157;28;20066;-85
2023/01/13 06:03:26;;;;;;;1.45;1.35;;;;;;;;;;4957422;28;20052;-84
2023/01/13 06:06:00;;;;;;;3.67;1.70;;;;;;;;;;4963277;28;20046;-84
2023/01/13 06:08:28;;;;;;;3.05;1.60;;;;;;;;;;4957336;28;20039;-86
2023/01/13 06:10:55;;;;;;;2.38;2.08;;;;;;;;;;4960182;28;20681;-85
2023/01/13 06:13:24;;;;;;;3.67;2.45;;;;;;;;;;4960278;28;20047;-85
2023/01/13 06:15:55;;;;;;;3.63;3.33;;;;;;;;;;4953557;28;20070;-84
2023/01/13 06:18:23;;;;;;;2.80;2.50;;;;;;;;;;4961819;28;20040;-85
2023/01/13 06:20:50;;;;;;;7.13;2.47;;;;;;;;;;4957854;28;20307;-84
2023/01/13 06:23:24;;;;;;;3.67;2.45;;;;;;;;;;4948445;28;20046;-85
2023/01/13 06:25:58;;;;;;;3.97;2.13;;;;;;;;;;4953422;28;20102;-85
2023/01/13 06:28:26;;;;;;;2.90;1.80;;;;;;;;;;4957846;28;20059;-86
2023/01/13 06:30:56;;;;;;;1.70;1.60;;;;;;;;;;4977440;28;20047;-85
2023/01/13 06:33:26;;;;;;;2.25;1.60;;;;;;;;;;4986348;28;20051;-86
2023/01/13 06:35:56;;;;;;;3.35;1.73;;;;;;;;;;4988522;28;20061;-86
2023/01/13 06:38:24;;;;;;;3.42;2.05;;;;;;;;;;4983650;28;21426;-86
2023/01/13 06:40:52;;;;;;;2.03;1.70;;;;;;;;;;4960038;28;20094;-85
2023/01/13 06:43:20;;;;;;;2.13;1.92;;;;;;;;;;4968251;28;20051;-85
2023/01/13 06:45:49;;;;;;;2.33;1.98;;;;;;;;;;4977242;28;20396;-87
2023/01/13 06:48:18;;;;;;;2.33;1.75;;;;;;;;;;4974909;28;20419;-85
2023/01/13 06:50:46;;;;;;;2.40;1.85;;;;;;;;;;4954172;28;20432;-87
2023/01/13 06:53:13;;;;;;;2.58;2.38;;;;;;;;;;4961827;28;20034;-87
2023/01/13 06:55:41;;;;;;;3.00;2.70;;;;;;;;;;4972434;28;20139;-87
2023/01/13 06:58:08;;;;;;;3.00;2.80;;;;;;;;;;4954898;28;20129;-88
2023/01/13 07:00:36;;;;;;;3.35;2.15;;;;;;;;;;4956425;28;20106;-88
2023/01/13 07:03:13;;;;;;;3.03;2.20;;;;;;;;;;4969063;28;20134;-89
2023/01/13 07:05:42;;;;;;;3.47;2.25;;;;;;;;;;5011716;23;20061;-78
2023/01/13 07:08:10;;;;;;;3.47;2.22;;;;;;;;;;5019010;28;20054;-78
2023/01/13 07:10:37;;;;;;;2.88;2.00;;;;;;;;;;5022719;28;20045;-78
2023/01/13 07:15:52;;;;;;;2.92;1.90;;;;;;;;;;5005405;28;20046;-79
2023/01/13 07:18:20;;;;;;;3.10;2.63;;;;;;;;;;4987885;28;20112;-79
2023/01/13 07:20:58;;;;;;;9.85;6.68;;;;;;;;;;5002072;28;20050;-82
2023/01/13 07:23:27;;;;;;;6.65;1.77;;;;;;;;;;5002828;28;20052;-78
2023/01/13 07:25:56;;;;;;;2.03;1.83;;;;;;;;;;5001692;28;20045;-81
2023/01/13 07:28:24;;;;;;;2.40;2.20;;;;;;;;;;5004380;28;20089;-82
2023/01/13 07:30:51;;;;;;;2.90;2.67;;;;;;;;;;4997385;28;20054;-81
2023/01/13 07:33:19;;;;;;;5.70;3.00;;;;;;;;;;4993436;28;20137;-79
2023/01/13 07:35:47;;;;;;;3.45;2.20;;;;;;;;;;4982682;28;20045;-83
2023/01/13 07:38:14;;;;;;;6.35;2.92;;;;;;;;;;5001004;28;20042;-82
2023/01/13 07:40:42;;;;;;;3.20;2.70;;;;;;;;;;4983597;28;20046;-82
2023/01/13 07:45:58;;;;;;;2.13;1.92;;;;;;;;;;5003859;28;20050;-79
2023/01/13 07:48:26;;;;;;;3.10;1.67;;;;;;;;;;4999140;28;20399;-81
2023/01/13 07:50:54;;;;;;;5.57;1.95;;;;;;;;;;5008824;28;20478;-81
2023/01/13 07:53:24;;;;;;;3.22;2.25;;;;;;;;;;5008402;28;20145;-79
2023/01/13 07:55:56;;;;;;;2.35;2.13;;;;;;;;;;5012375;28;20073;-79
2023/01/13 07:58:25;;;;;;;5.03;2.22;;;;;;;;;;4986374;28;20046;-80
2023/01/13 08:00:53;;;;;;;2.53;2.05;;;;;;;;;;5008052;28;20045;-83
2023/01/13 08:03:21;;;;;;;2.78;2.00;;;;;;;;;;4991518;28;20491;-82
2023/01/13 08:05:49;;;;;;;4.25;2.10;;;;;;;;;;5008665;28;20057;-80
2023/01/13 08:08:17;;;;;;;2.38;2.15;;;;;;;;;;5006127;28;20054;-80
2023/01/13 08:10:44;;;;;;;7.55;2.80;;;;;;;;;;5011228;28;20061;-83
2023/01/13 08:13:16;;;;;;;2.10;2.00;;;;;;;;;;4993157;28;20834;-81
2023/01/13 08:15:44;;;;;;;3.67;2.30;;;;;;;;;;4984347;28;20046;-81
2023/01/13 08:18:12;;;;;;;3.50;2.33;;;;;;;;;;4991183;28;20051;-80
2023/01/13 08:20:40;;;;;;;4.65;2.38;;;;;;;;;;4977745;28;20049;-80
2023/01/13 08:23:07;;;;;;;2.58;2.38;;;;;;;;;;4989836;28;20100;-83
2023/01/13 08:25:35;;;;;;;3.33;2.25;;;;;;;;;;5005159;28;20105;-84
2023/01/13 08:28:03;;;;;;;3.17;2.00;;;;;;;;;;5023751;28;20053;-83
2023/01/13 08:30:30;;;;;;;4.63;3.33;;;;;;;;;;5011363;28;20064;-81
2023/01/13 08:32:57;;;;;;;11.05;6.55;;;;;;;;;;5017659;28;20105;-82
2023/01/13 08:35:25;;;;;;;3.10;2.80;;;;;;;;;;5010680;28;20073;-80
2023/01/13 08:37:52;;;;;;;4.70;3.00;;;;;;;;;;5011982;28;20050;-80
2023/01/13 08:40:21;;;;;;;2.70;2.50;;;;;;;;;;5012352;28;20042;-80
2023/01/13 08:42:48;;;;;;;4.82;2.78;;;;;;;;;;5011616;28;20427;-80
2023/01/13 08:45:16;;;;;;;2.72;2.50;;;;;;;;;;5009938;28;20066;-83
2023/01/13 08:47:43;;;;;;;6.90;2.83;;;;;;;;;;5010091;28;20142;-80
2023/01/13 08:50:11;;;;;;;3.75;2.72;;;;;;;;;;5004755;28;20511;-80
2023/01/13 08:52:38;;;;;;;4.90;2.78;;;;;;;;;;5007036;28;20053;-84
2023/01/13 08:55:06;;;;;;;6.07;3.72;;;;;;;;;;5007983;28;20073;-82
2023/01/13 08:57:34;;;;;;;5.07;3.63;;;;;;;;;;5009302;28;20733;-80
2023/01/13 09:00:02;;;;;;;3.10;2.80;;;;;;;;;;4999033;28;20783;-80
2023/01/13 09:02:29;;;;;;;6.00;4.07;;;;;;;;;;5005995;28;20045;-83
2023/01/13 09:04:56;;;;;;;4.30;3.15;;;;;;;;;;4988265;28;20779;-79
2023/01/13 09:07:24;;;;;;;4.97;3.30;;;;;;;;;;4991173;28;20049;-79
2023/01/13 09:09:51;;;;;;;2.67;2.53;;;;;;;;;;4991280;28;20052;-84
2023/01/13 09:15:05;;;;;;;5.80;2.90;;;;;;;;;;5009362;28;20495;-79
2023/01/13 09:17:32;;;;;;;4.15;3.17;;;;;;;;;;5009929;28;20053;-79
2023/01/13 09:20:00;;;;;;;5.93;3.03;;;;;;;;;;4992657;28;20089;-83
2023/01/13 09:22:27;;;;;;;5.90;3.47;;;;;;;;;;5007736;28;20130;-79
2023/01/13 09:24:55;;;;;;;5.20;3.30;;;;;;;;;;5007023;28;20057;-80
2023/01/13 09:27:23;;;;;;;4.38;2.80;;;;;;;;;;5008481;28;20065;-81
2023/01/13 09:29:50;;;;;;;4.68;3.65;;;;;;;;;;4991499;28;20172;-83
2023/01/13 09:32:17;;;;;;;7.97;7.13;;;;;;;;;;4996331;28;20516;-79
2023/01/13 09:35:01;;;;;;;6.65;3.38;;;;;;;;;;5002400;28;20057;-80
2023/01/13 09:37:29;;;;;;;3.60;3.17;;;;;;;;;;4992938;28;20046;-79
2023/01/13 09:39:57;;;;;;;4.07;3.47;;;;;;;;;;5005738;28;20408;-83
2023/01/13 09:45:33;;;;;;;3.28;2.97;;;;;;;;;;5004556;28;20827;-81
2023/01/13 09:48:00;;;;;;;3.73;3.07;;;;;;;;;;4991906;28;20060;-79
2023/01/13 09:50:28;;;;;;;5.35;3.47;;;;;;;;;;5007572;28;20132;-80
2023/01/13 09:52:56;;;;;;;4.57;3.15;;;;;;;;;;5008588;28;20116;-81
2023/01/13 09:55:31;;;;;;;3.72;3.03;;;;;;;;;;4990048;28;20052;-82
2023/01/13 09:58:01;;;;;;;4.80;3.47;;;;;;;;;;5005960;28;20042;-79
2023/01/13 10:00:35;;;;;;;3.13;2.85;;;;;;;;;;5008955;28;20052;-80
2023/01/13 10:03:11;;;;;;;3.00;2.80;;;;;;;;;;5000432;28;20042;-80
2023/01/13 10:05:45;;;;;;;3.50;3.08;;;;;;;;;;5003875;28;20129;-79
2023/01/13 10:08:31;;;;;;;4.00;3.13;;;;;;;;;;4998962;28;20117;-82
2023/01/13 10:13:12;;;;;;;3.88;2.60;;;;;;;;;;4972359;28;20054;-81
2023/01/13 10:13:50;;;;;;;4.85;3.58;;;;;;;;;;4990861;28;20054;-80
2023/01/13 10:16:27;;;;;;;3.22;2.97;;;;;;;;;;5009857;28;20050;-80
2023/01/13 10:18:57;;;;;;;3.67;3.22;;;;;;;;;;5022422;28;20118;-83
2023/01/13 10:21:33;;;;;;;5.10;3.67;;;;;;;;;;5024573;28;20045;-80
2023/01/13 10:24:03;;;;;;;3.60;3.15;;;;;;;;;;5024478;28;20049;-80
2023/01/13 10:26:34;;;;;;;3.85;3.47;;;;;;;;;;5009479;28;20053;-81
2023/01/13 10:29:01;;;;;;;4.38;2.95;;;;;;;;;;5010337;28;20093;-79
2023/01/13 10:31:29;;;;;;;4.47;3.17;;;;;;;;;;5007231;28;20105;-81
2023/01/13 10:34:00;;;;;;;4.30;3.13;;;;;;;;;;5004048;28;20054;-81
2023/01/13 10:36:27;;;;;;;3.50;3.20;;;;;;;;;;5005916;28;20073;-80
2023/01/13 10:39:06;;;;;;;4.82;3.38;;;;;;;;;;5004647;28;20065;-81
2023/01/13 10:41:35;;;;;;;5.18;2.92;;;;;;;;;;5008459;28;20050;-79
2023/01/13 10:44:12;;;;;;;5.20;2.83;;;;;;;;;;5009368;28;20042;-79
2023/01/13 10:46:51;;;;;;;7.85;2.80;;;;;;;;;;5008367;28;20046;-79
2023/01/13 10:49:27;;;;;;;2.92;2.70;;;;;;;;;;5009178;28;20046;-79
2023/01/13 10:51:54;;;;;;;3.38;3.08;;;;;;;;;;5008188;28;20393;-80
2023/01/13 10:54:23;;;;;;;2.95;2.65;;;;;;;;;;5008563;28;20050;-79
2023/01/13 10:57:10;;;;;;;5.75;2.90;;;;;;;;;;5008483;28;20322;-79
2023/01/13 10:59:38;;;;;;;3.70;2.70;;;;;;;;;;5009137;28;20045;-79
2023/01/13 11:02:08;;;;;;;4.40;3.15;;;;;;;;;;5008141;28;20050;-78
2023/01/13 11:04:54;;;;;;;4.03;2.95;;;;;;;;;;5008101;28;20054;-78
2023/01/13 11:07:35;;;;;;;3.55;3.22;;;;;;;;;;5008317;28;20120;-78
2023/01/13 11:10:13;;;;;;;4.75;3.00;;;;;;;;;;5008345;28;20050;-79
2023/01/13 11:13:07;;;;;;;6.65;5.63;;;;;;;;;;5008571;28;20053;-79
2023/01/13 11:15:44;;;;;;;3.58;3.00;;;;;;;;;;4982335;28;20109;-79
2023/01/13 11:18:14;;;;;;;3.30;3.00;;;;;;;;;;5002703;28;20041;-78
2023/01/13 11:20:43;;;;;;;3.67;3.10;;;;;;;;;;5008789;28;20127;-78
2023/01/13 11:23:14;;;;;;;2.92;2.50;;;;;;;;;;5007823;28;20056;-81
2023/01/13 11:25:44;;;;;;;6.65;3.40;;;;;;;;;;5011463;28;20069;-79
2023/01/13 11:28:35;;;;;;;3.17;2.88;;;;;;;;;;5008947;28;20397;-80
2023/01/13 11:31:21;;;;;;;3.40;3.10;;;;;;;;;;4984127;28;20061;-79
2023/01/13 11:34:00;;;;;;;3.05;2.45;;;;;;;;;;5002566;28;20057;-80
2023/01/13 11:36:30;;;;;;;4.25;2.97;;;;;;;;;;5007615;28;20516;-80
2023/01/13 11:39:01;;;;;;;2.95;2.75;;;;;;;;;;5007699;28;20514;-80
2023/01/13 11:41:46;;;;;;;3.65;2.75;;;;;;;;;;5007624;28;20124;-80
2023/01/13 11:44:20;;;;;;;3.83;2.53;;;;;;;;;;5007818;28;20053;-80
2023/01/13 11:46:51;;;;;;;3.83;2.35;;;;;;;;;;5009721;28;20125;-80
2023/01/13 11:49:30;;;;;;;3.97;3.10;;;;;;;;;;5008216;28;20436;-81
2023/01/13 11:51:58;;;;;;;2.55;2.13;;;;;;;;;;5006859;28;20288;-81
2023/01/13 11:54:47;;;;;;;2.95;2.15;;;;;;;;;;5007857;28;20057;-80
2023/01/13 11:57:33;;;;;;;2.72;1.67;;;;;;;;;;5008320;28;20042;-80
2023/01/13 12:00:10;;;;;;;1.52;1.42;;;;;;;;;;5010908;28;20046;-80
2023/01/13 12:02:40;;;;;;;1.75;1.30;;;;;;;;;;5010770;28;20042;-79
2023/01/13 12:05:18;;;;;;;1.95;1.33;;;;;;;;;;5011830;28;20165;-80
2023/01/13 12:08:01;;;;;;;1.58;1.48;;;;;;;;;;5011420;28;20527;-82
2023/01/13 12:10:46;;;;;;;3.00;1.35;;;;;;;;;;5018404;28;20055;-83
2023/01/13 12:13:20;;;;;;;1.10;1.05;;;;;;;;;;5011283;28;20084;-83
2023/01/13 12:15:51;;;;;;;1.60;1.50;;;;;;;;;;5022769;28;20056;-82
2023/01/13 12:18:40;;;;;;;1.58;1.48;;;;;;;;;;5004527;28;20046;-79
2023/01/13 12:21:19;;;;;;;0.93;0.93;;;;;;;;;;4991509;28;20500;-80
2023/01/13 12:23:53;;;;;;;2.38;1.90;;;;;;;;;;4991926;28;20050;-79
2023/01/13 12:26:21;;;;;;;1.58;1.17;;;;;;;;;;4992678;28;20053;-80
2023/01/13 12:28:48;;;;;;;2.35;1.65;;;;;;;;;;4983913;28;20062;-79
2023/01/13 12:31:17;;;;;;;2.83;1.00;;;;;;;;;;4993036;28;20050;-82
2023/01/13 12:33:48;;;;;;;1.90;1.80;;;;;;;;;;5011141;28;20463;-79
2023/01/13 12:36:31;;;;;;;2.03;1.92;;;;;;;;;;4993496;28;20038;-79
2023/01/13 12:39:17;;;;;;;1.50;1.27;;;;;;;;;;5011658;28;20396;-80
2023/01/13 12:45:05;;;;;;;1.50;1.40;;;;;;;;;;5010573;28;20077;-81
2023/01/13 12:47:42;;;;;;;2.08;1.20;;;;;;;;;;5014945;28;20064;-82
2023/01/13 12:50:22;;;;;;;1.10;1.00;;;;;;;;;;5014942;28;20053;-80
2023/01/13 12:52:51;;;;;;;3.28;1.40;;;;;;;;;;5011547;28;20455;-80
2023/01/13 12:55:19;;;;;;;3.33;1.50;;;;;;;;;;5010247;28;20476;-79
2023/01/13 12:57:58;;;;;;;2.83;1.33;;;;;;;;;;4994078;28;20116;-80
2023/01/13 13:00:37;;;;;;;1.50;1.40;;;;;;;;;;5010723;28;20084;-80
2023/01/13 13:03:10;;;;;;;1.55;1.45;;;;;;;;;;5010596;28;20054;-80
2023/01/13 13:08:42;;;;;;;2.60;1.95;;;;;;;;;;4992103;28;20054;-81
2023/01/13 13:14:03;;;;;;;4.28;2.80;;;;;;;;;;4991209;28;20054;-82
2023/01/13 13:16:32;;;;;;;4.30;2.97;;;;;;;;;;4974779;28;20108;-81
2023/01/13 13:19:31;;;;;;;5.20;3.60;;;;;;;;;;4992274;28;20463;-81
2023/01/13 13:22:31;;;;;;;6.45;4.72;;;;;;;;;;4904367;28;20046;-83
2023/01/13 13:24:59;;;;;;;11.18;7.97;;;;;;;;;;4948651;28;20063;-81
2023/01/13 13:27:29;;;;;;;13.50;8.57;;;;;;;;;;4973342;28;20514;-82
2023/01/13 13:30:03;;;;;;;14.05;9.18;;;;;;;;;;4987729;28;20061;-82
2023/01/13 13:32:43;;;;;;;14.40;8.95;;;;;;;;;;4953513;28;20471;-82
2023/01/13 13:35:22;;;;;;;13.65;9.05;;;;;;;;;;4955691;28;20051;-82
2023/01/13 13:46:47;;;;;;;4.00;3.47;;;;;;;;;;4955135;28;20058;-82
2023/01/13 13:49:19;;;;;;;5.70;3.67;;;;;;;;;;4975102;28;20089;-82
2023/01/13 13:52:14;;;;;;;3.83;2.95;;;;;;;;;;4955298;28;20489;-81
2023/01/13 13:54:43;;;;;;;4.13;2.80;;;;;;;;;;4972008;28;20058;-81
2023/01/13 13:57:29;;;;;;;3.55;2.00;;;;;;;;;;4985743;28;20046;-81
2023/01/13 13:59:58;;;;;;;1.30;1.20;;;;;;;;;;4976184;28;20046;-81
2023/01/13 14:02:29;;;;;;;1.92;1.45;;;;;;;;;;4990469;28;20050;-81
2023/01/13 14:05:15;;;;;;;2.65;1.33;;;;;;;;;;4992846;28;20562;-81
2023/01/13 14:07:50;;;;;;;1.10;0.93;;;;;;;;;;4993027;28;20136;-82
2023/01/13 14:10:20;;;;;;;1.30;1.20;;;;;;;;;;4992400;28;20054;-82
2023/01/13 14:12:48;;;;;;;2.42;1.10;;;;;;;;;;4974238;28;20054;-81
2023/01/13 14:15:25;;;;;;;0.98;0.98;;;;;;;;;;4992489;28;20432;-82
2023/01/13 14:17:53;;;;;;;1.08;0.88;;;;;;;;;;4975336;28;20077;-81
2023/01/13 14:20:21;;;;;;;1.75;1.45;;;;;;;;;;4992349;28;20050;-82
2023/01/13 14:22:49;;;;;;;1.80;1.42;;;;;;;;;;4993245;28;20125;-82
2023/01/13 14:25:36;;;;;;;1.42;1.10;;;;;;;;;;4994849;28;20057;-82
2023/01/13 14:28:19;;;;;;;10.40;9.75;;;;;;;;;;4992574;28;20503;-82
2023/01/13 14:30:48;;;;;;;3.75;3.55;;;;;;;;;;4989669;28;20449;-84
2023/01/13 14:33:17;;;;;;;0.70;0.70;;;;;;;;;;4990199;28;20509;-84
2023/01/13 14:36:07;;;;;;;1.10;0.90;;;;;;;;;;4990541;28;20113;-84
2023/01/13 14:38:34;;;;;;;0.77;0.73;;;;;;;;;;4972482;28;20126;-84
2023/01/13 14:41:21;;;;;;;1.17;0.82;;;;;;;;;;4990453;28;20524;-84
2023/01/13 14:43:50;;;;;;;2.45;0.90;;;;;;;;;;4988950;28;20428;-84
2023/01/13 14:46:21;;;;;;;5.55;1.33;;;;;;;;;;4988568;28;20531;-83
2023/01/13 14:48:49;;;;;;;3.03;0.90;;;;;;;;;;4966417;28;20060;-84
2023/01/13 14:51:22;;;;;;;3.40;1.38;;;;;;;;;;4970397;28;20066;-84
2023/01/13 14:53:49;;;;;;;1.00;1.00;;;;;;;;;;4965028;28;20054;-85
2023/01/13 14:56:35;;;;;;;3.08;1.42;;;;;;;;;;4989855;28;20141;-84
2023/01/13 14:59:21;;;;;;;2.35;1.35;;;;;;;;;;4989638;28;20504;-84
2023/01/13 15:01:49;;;;;;;1.95;1.52;;;;;;;;;;4989582;28;20594;-84
2023/01/13 15:04:27;;;;;;;1.95;1.80;;;;;;;;;;4965313;28;20157;-84
2023/01/13 15:06:56;;;;;;;2.92;1.80;;;;;;;;;;4970379;28;20046;-84
2023/01/13 15:09:25;;;;;;;1.80;1.70;;;;;;;;;;4970433;28;20051;-84
2023/01/13 15:11:53;;;;;;;1.80;1.70;;;;;;;;;;4977573;28;20058;-84
2023/01/13 15:14:24;;;;;;;2.13;2.00;;;;;;;;;;4971528;28;20040;-84
2023/01/13 15:16:51;;;;;;;4.10;2.10;;;;;;;;;;4972130;28;20062;-84
2023/01/13 15:19:19;;;;;;;1.90;1.80;;;;;;;;;;4972361;28;20042;-84
2023/01/13 15:21:46;;;;;;;3.47;2.10;;;;;;;;;;4992946;28;20090;-84
2023/01/13 15:24:13;;;;;;;5.05;3.10;;;;;;;;;;4973730;28;20053;-84
2023/01/13 15:26:41;;;;;;;3.15;2.85;;;;;;;;;;4993817;28;20706;-84
2023/01/13 15:29:13;;;;;;;2.10;1.95;;;;;;;;;;4988691;28;20118;-84
2023/01/13 15:31:40;;;;;;;3.15;2.05;;;;;;;;;;4990498;28;20064;-83
2023/01/13 15:34:08;;;;;;;1.70;1.60;;;;;;;;;;4994885;28;20058;-83
2023/01/13 15:36:36;;;;;;;4.25;1.75;;;;;;;;;;4976927;28;20058;-83
2023/01/13 15:39:04;;;;;;;1.95;1.80;;;;;;;;;;4960544;28;20054;-83
2023/01/13 15:47:05;;;;;;;55.88;50.97;;;;;;;;;;4993683;28;20066;-84
2023/01/13 15:49:38;;;;;;;5.55;4.22;;;;;;;;;;4993230;28;20058;-84
2023/01/13 15:52:22;;;;;;;3.20;1.05;;;;;;;;;;4990252;28;20081;-83
2023/01/13 15:54:50;;;;;;;1.67;0.80;;;;;;;;;;4984554;28;20074;-84
2023/01/13 15:57:25;;;;;;;1.98;0.88;;;;;;;;;;4987346;28;20121;-84
2023/01/13 15:59:56;;;;;;;1.48;0.90;;;;;;;;;;4974389;28;20133;-84
2023/01/13 16:02:24;;;;;;;3.72;1.00;;;;;;;;;;4992390;28;20042;-83
2023/01/13 16:04:52;;;;;;;2.40;0.98;;;;;;;;;;4974241;28;20133;-84
2023/01/13 16:07:21;;;;;;;2.28;1.10;;;;;;;;;;4991810;28;20057;-84
2023/01/13 16:09:49;;;;;;;3.25;1.25;;;;;;;;;;4991562;28;20058;-84
2023/01/13 16:12:16;;;;;;;4.28;1.13;;;;;;;;;;4975200;28;20139;-84